Celebrity Galaxy — 9HJH9 — position and weather

sailwx.info

Track history (hours):
 
Tides and Currents Weather Stations Pressure Air Temp Water Temp Dewpoint Dewpoint Depression Visibility Wind Speed Wind Dir Waves Ship Positions

Celebrity Galaxy

Last reported at 2017-Mar-23 23:21 UTC. Time now 2017-Mar-24 12:20 UTC.
Position N 01°58' E 102°14'.

Length 262 m; draft 8.5 m.

Type: Passenger vessel. MMSI: 249051000.

Date/timePositionNaut miles runAvg speedWind from/ knotsBaromVisibWave heightAir tempDewpointWater temp
2017-Mar-23 23:21N 01°58' E 102°14'8 9.3
2017-Mar-23 22:33N 01°54' E 102°21'9 9.3
2017-Mar-23 21:33N 01°50' E 102°29'9 8.9
2017-Mar-23 20:33N 01°47' E 102°38'9 9.3
2017-Mar-23 19:33N 01°43' E 102°46'41 9.5
2017-Mar-23 15:16N 01°19' E 103°19'7 9.6
2017-Mar-23 14:30N 01°14' E 103°25'9 9.3
2017-Mar-23 13:33N 01°12' E 103°33'9 9.5
2017-Mar-23 12:34N 01°09' E 103°42'1010.3
2017-Mar-23 11:33N 01°12' E 103°52'4 3.4
2017-Mar-23 10:28N 01°16' E 103°52'0 0.0
2017-Mar-23 09:32N 01°16' E 103°52'0 0.0
2017-Mar-23 08:14N 01°16' E 103°52'0 0.0
2017-Mar-23 07:32N 01°16' E 103°52'0 0.0
2017-Mar-23 06:32N 01°16' E 103°52'0 0.0
2017-Mar-23 05:32N 01°16' E 103°52'0 0.0
2017-Mar-23 04:30N 01°16' E 103°52'0 0.0
2017-Mar-23 03:32N 01°16' E 103°52'0 0.0
2017-Mar-23 02:28N 01°16' E 103°52'0 0.0
2017-Mar-23 01:30N 01°16' E 103°52'0 0.0
2017-Mar-23 00:17N 01°16' E 103°52'0 0.0
2017-Mar-22 23:28N 01°16' E 103°52'0 0.0
2017-Mar-22 22:28N 01°16' E 103°52'0 0.0
2017-Mar-22 21:32N 01°16' E 103°52'0 0.0
2017-Mar-22 20:33N 01°16' E 103°52'0 0.0
2017-Mar-22 19:27N 01°16' E 103°52'0 0.0
2017-Mar-22 18:21N 01°16' E 103°52'0 0.0
2017-Mar-22 17:29N 01°16' E 103°52'0 0.0
2017-Mar-22 16:23N 01°16' E 103°52'0 0.0
2017-Mar-22 15:33N 01°16' E 103°52'0 0.0
2017-Mar-22 13:33N 01°16' E 103°52'0 0.0
2017-Mar-22 12:25N 01°16' E 103°52'0 0.0
2017-Mar-22 11:33N 01°16' E 103°52'0 0.0
2017-Mar-22 10:33N 01°16' E 103°52'0 0.0
2017-Mar-22 09:24N 01°16' E 103°52'0 0.0
2017-Mar-22 08:11N 01°16' E 103°52'0 0.0
2017-Mar-22 07:28N 01°16' E 103°52'0 0.0
2017-Mar-22 06:29N 01°16' E 103°52'0 0.0
2017-Mar-22 05:30N 01°16' E 103°52'0 0.0
2017-Mar-22 04:32N 01°16' E 103°52'0 0.0
2017-Mar-22 03:28N 01°16' E 103°52'0 0.0
2017-Mar-22 02:33N 01°16' E 103°52'0 0.0
2017-Mar-22 01:18N 01°16' E 103°52'0 0.0
2017-Mar-22 00:29N 01°16' E 103°52'0 0.0
2017-Mar-21 23:33N 01°16' E 103°52'6 6.4
2017-Mar-21 22:33N 01°15' E 103°58'  
2017-Mar-16 12:33N 01°14' E 103°57'6 5.6
2017-Mar-16 11:33N 01°16' E 103°52'0 0.3
2017-Mar-16 10:31N 01°16' E 103°52'0 0.0
2017-Mar-16 09:33N 01°16' E 103°52'0 0.0
2017-Mar-16 08:23N 01°16' E 103°52'0 0.0
2017-Mar-16 07:29N 01°16' E 103°52'0 0.0
2017-Mar-16 06:29N 01°16' E 103°52'0 0.0
2017-Mar-16 05:20N 01°16' E 103°52'0 0.0
2017-Mar-16 04:33N 01°16' E 103°52'0 0.0
2017-Mar-16 03:27N 01°16' E 103°52'0 0.0
2017-Mar-16 02:33N 01°16' E 103°52'0 0.0
2017-Mar-16 01:29N 01°16' E 103°52'0 0.0
2017-Mar-16 00:29N 01°16' E 103°52'0 0.0
2017-Mar-15 23:24N 01°16' E 103°52'0 0.0
2017-Mar-15 22:33N 01°16' E 103°52'0 0.0
2017-Mar-15 21:29N 01°16' E 103°52'0 0.0
2017-Mar-15 20:20N 01°16' E 103°52'0 0.0
2017-Mar-15 19:31N 01°16' E 103°52'0 0.0
2017-Mar-15 18:21N 01°16' E 103°52'0 0.0
2017-Mar-15 15:27N 01°16' E 103°52'0 0.0
2017-Mar-15 14:33N 01°16' E 103°52'0 0.0
2017-Mar-15 13:27N 01°16' E 103°52'0 0.0
2017-Mar-15 12:31N 01°16' E 103°52'0 0.0
2017-Mar-15 11:31N 01°16' E 103°52'0 0.0
2017-Mar-15 10:33N 01°16' E 103°52'0 0.0
2017-Mar-15 09:25N 01°16' E 103°52'0 0.0
2017-Mar-15 08:28N 01°16' E 103°52'0 0.0
2017-Mar-15 07:32N 01°16' E 103°52'0 0.0
2017-Mar-15 05:28N 01°16' E 103°52'0 0.0
2017-Mar-15 04:29N 01°16' E 103°52'0 0.0
2017-Mar-15 03:30N 01°16' E 103°52'0 0.0
2017-Mar-15 02:21N 01°16' E 103°52'0 0.0
2017-Mar-15 01:30N 01°16' E 103°52'0 0.0
2017-Mar-15 00:30N 01°16' E 103°52'0 0.0
2017-Mar-14 23:27N 01°16' E 103°52'0 0.0
2017-Mar-14 22:30N 01°16' E 103°52'0 0.0
2017-Mar-14 21:33N 01°16' E 103°52'5 5.3
2017-Mar-14 20:33N 01°11' E 103°50'9 8.7
2017-Mar-14 19:33N 01°05' E 103°43'10 9.6
2017-Mar-14 18:33N 01°06' E 103°34'1513.0
2017-Mar-14 17:25N 01°14' E 103°21'6114.2
2017-Mar-14 13:06N 01°47' E 102°30'814.0
2017-Mar-14 12:31N 01°51' E 102°23'  
Track history (hours):
 
Tides and Currents Weather Stations Pressure Air Temp Water Temp Dewpoint Dewpoint Depression Visibility Wind Speed Wind Dir Waves Ship Positions

Celebrity Galaxy

Last reported at 2017-Mar-23 23:21 UTC. Time now 2017-Mar-24 12:20 UTC.
Position N 01°58' E 102°14'.

Length 262 m; draft 8.5 m.

Type: Passenger vessel. MMSI: 249051000.

Date/timePositionNaut miles runAvg speedWind from/ knotsBaromVisibWave heightAir tempDewpointWater temp
2017-Mar-23 23:21N 01°58' E 102°14'8 9.3
2017-Mar-23 22:33N 01°54' E 102°21'9 9.3
2017-Mar-23 21:33N 01°50' E 102°29'9 8.9
2017-Mar-23 20:33N 01°47' E 102°38'9 9.3
2017-Mar-23 19:33N 01°43' E 102°46'41 9.5
2017-Mar-23 15:16N 01°19' E 103°19'7 9.6
2017-Mar-23 14:30N 01°14' E 103°25'9 9.3
2017-Mar-23 13:33N 01°12' E 103°33'9 9.5
2017-Mar-23 12:34N 01°09' E 103°42'1010.3
2017-Mar-23 11:33N 01°12' E 103°52'4 3.4
2017-Mar-23 10:28N 01°16' E 103°52'0 0.0
2017-Mar-23 09:32N 01°16' E 103°52'0 0.0
2017-Mar-23 08:14N 01°16' E 103°52'0 0.0
2017-Mar-23 07:32N 01°16' E 103°52'0 0.0
2017-Mar-23 06:32N 01°16' E 103°52'0 0.0
2017-Mar-23 05:32N 01°16' E 103°52'0 0.0
2017-Mar-23 04:30N 01°16' E 103°52'0 0.0
2017-Mar-23 03:32N 01°16' E 103°52'0 0.0
2017-Mar-23 02:28N 01°16' E 103°52'0 0.0
2017-Mar-23 01:30N 01°16' E 103°52'0 0.0
2017-Mar-23 00:17N 01°16' E 103°52'0 0.0
2017-Mar-22 23:28N 01°16' E 103°52'0 0.0
2017-Mar-22 22:28N 01°16' E 103°52'0 0.0
2017-Mar-22 21:32N 01°16' E 103°52'0 0.0
2017-Mar-22 20:33N 01°16' E 103°52'0 0.0
2017-Mar-22 19:27N 01°16' E 103°52'0 0.0
2017-Mar-22 18:21N 01°16' E 103°52'0 0.0
2017-Mar-22 17:29N 01°16' E 103°52'0 0.0
2017-Mar-22 16:23N 01°16' E 103°52'0 0.0
2017-Mar-22 15:33N 01°16' E 103°52'0 0.0
2017-Mar-22 13:33N 01°16' E 103°52'0 0.0
2017-Mar-22 12:25N 01°16' E 103°52'0 0.0
2017-Mar-22 11:33N 01°16' E 103°52'0 0.0
2017-Mar-22 10:33N 01°16' E 103°52'0 0.0
2017-Mar-22 09:24N 01°16' E 103°52'0 0.0
2017-Mar-22 08:11N 01°16' E 103°52'0 0.0
2017-Mar-22 07:28N 01°16' E 103°52'0 0.0
2017-Mar-22 06:29N 01°16' E 103°52'0 0.0
2017-Mar-22 05:30N 01°16' E 103°52'0 0.0
2017-Mar-22 04:32N 01°16' E 103°52'0 0.0
2017-Mar-22 03:28N 01°16' E 103°52'0 0.0
2017-Mar-22 02:33N 01°16' E 103°52'0 0.0
2017-Mar-22 01:18N 01°16' E 103°52'0 0.0
2017-Mar-22 00:29N 01°16' E 103°52'0 0.0
2017-Mar-21 23:33N 01°16' E 103°52'6 6.4
2017-Mar-21 22:33N 01°15' E 103°58'  
2017-Mar-16 12:33N 01°14' E 103°57'6 5.6
2017-Mar-16 11:33N 01°16' E 103°52'0 0.3
2017-Mar-16 10:31N 01°16' E 103°52'0 0.0
2017-Mar-16 09:33N 01°16' E 103°52'0 0.0
2017-Mar-16 08:23N 01°16' E 103°52'0 0.0
2017-Mar-16 07:29N 01°16' E 103°52'0 0.0
2017-Mar-16 06:29N 01°16' E 103°52'0 0.0
2017-Mar-16 05:20N 01°16' E 103°52'0 0.0
2017-Mar-16 04:33N 01°16' E 103°52'0 0.0
2017-Mar-16 03:27N 01°16' E 103°52'0 0.0
2017-Mar-16 02:33N 01°16' E 103°52'0 0.0
2017-Mar-16 01:29N 01°16' E 103°52'0 0.0
2017-Mar-16 00:29N 01°16' E 103°52'0 0.0
2017-Mar-15 23:24N 01°16' E 103°52'0 0.0
2017-Mar-15 22:33N 01°16' E 103°52'0 0.0
2017-Mar-15 21:29N 01°16' E 103°52'0 0.0
2017-Mar-15 20:20N 01°16' E 103°52'0 0.0
2017-Mar-15 19:31N 01°16' E 103°52'0 0.0
2017-Mar-15 18:21N 01°16' E 103°52'0 0.0
2017-Mar-15 15:27N 01°16' E 103°52'0 0.0
2017-Mar-15 14:33N 01°16' E 103°52'0 0.0
2017-Mar-15 13:27N 01°16' E 103°52'0 0.0
2017-Mar-15 12:31N 01°16' E 103°52'0 0.0
2017-Mar-15 11:31N 01°16' E 103°52'0 0.0
2017-Mar-15 10:33N 01°16' E 103°52'0 0.0
2017-Mar-15 09:25N 01°16' E 103°52'0 0.0
2017-Mar-15 08:28N 01°16' E 103°52'0 0.0
2017-Mar-15 07:32N 01°16' E 103°52'0 0.0
2017-Mar-15 05:28N 01°16' E 103°52'0 0.0
2017-Mar-15 04:29N 01°16' E 103°52'0 0.0
2017-Mar-15 03:30N 01°16' E 103°52'0 0.0
2017-Mar-15 02:21N 01°16' E 103°52'0 0.0
2017-Mar-15 01:30N 01°16' E 103°52'0 0.0
2017-Mar-15 00:30N 01°16' E 103°52'0 0.0
2017-Mar-14 23:27N 01°16' E 103°52'0 0.0
2017-Mar-14 22:30N 01°16' E 103°52'0 0.0
2017-Mar-14 21:33N 01°16' E 103°52'5 5.3
2017-Mar-14 20:33N 01°11' E 103°50'9 8.7
2017-Mar-14 19:33N 01°05' E 103°43'10 9.6
2017-Mar-14 18:33N 01°06' E 103°34'1513.0
2017-Mar-14 17:25N 01°14' E 103°21'6114.2
2017-Mar-14 13:06N 01°47' E 102°30'814.0
2017-Mar-14 12:31N 01°51' E 102°23'  

Dump ship's entire track history